Main page
METAR-TAF:

METAR-TAF

Airports :

Sliač, Slovakia

Sliač Airport

latitude: 48-38-17N, longitude: 019-08-03E, elevation: 318 m

Current weather observation

The report was made 14 minutes ago, at 19:00 UTC
Calm wind
Temperature 4°C
Humidity 87%
Pressure 1021 hPa
Visibility: 6000 m
Overcast at a height of 3100 ft
light rain

METAR: LZSL 171900Z 00000KT 6000 -RA OVC031 04/02 Q1021

Time: 20:14 (19:14 UTC)

Forecast

The report was made 2 hours and 14 minutes ago, at 17:00 UTC
Forecast valid from 17 at 18 UTC to 18 at 03 UTC
Wind 2 kt from variable directions
Visibility 10 km or more
Overcast at a height of 5000 ft
Temporary
from 17 at 18 UTC to 18 at 00 UTC
Visibility: 5000 m
Broken clouds at a height of 1200 ft
Overcast at a height of 3500 ft
light rain, mist
Temporary
from 17 at 19 UTC to 18 at 03 UTC
Visibility: 3000 m
Broken clouds at a height of 800 ft
Overcast at a height of 3000 ft
mist

TAF: LZSL 171700Z 1718/1803 VRB02KT 9999 OVC050 TEMPO 1718/1800 5000 -RA BR BKN012 OVC035 TEMPO 1719/1803 3000 BR BKN008 OVC030

Weather observations and forecasts of more than 4000 airports (METAR and TAF reports).

The available stations are represented by yellow and red dots on the map.

Hover mouse over dot to see the name of the station.

Then click to see weather observations and forecasts.

To change the map : click on the green buttons with a black cross to zoom in, on the green button with a dash to zoom out, or on the green arrows for adjacent maps.


METAR-TAF: